Flight Track Log - Related Links

Times and Time Zones

All times are in EDT time to prevent confusion due to time zone crossing. See the SWA2236 flight status page for this flight to view local times or setup timezone preferences in your user account.

Time Position Orientation Groundspeed Altitude Reporting Facility
EDT Latitude Longitude Course Direction KTS MPH feet Rate Location/Type
Mon 02:41:48 PM 36.0739 -115.2381 211° Southwest 208 239 4,700  Level Los Angeles Center
Mon 02:42:49 PM 36.0142 -115.2817 211° Southwest 264 304 6,500 2,066 Climbing Los Angeles Center
Mon 02:43:50 PM 35.9411 -115.2922 187° South 283 326 8,900 1,230 Climbing Los Angeles Center
Mon 02:44:51 PM 35.8919 -115.2156 128° Southeast 301 346 9,000 541 Climbing Los Angeles Center
Mon 02:45:52 PM 35.8953 -115.1108 88° East 311 358 10,000 984 Climbing Los Angeles Center
Mon 02:46:53 PM 35.8972 -115.0014 89° East 305 351 11,000 1,329 Climbing Los Angeles Center
Mon 02:48:21 PM 35.9008 -114.8450 88° East 320 368 13,300 1,880 Climbing Los Angeles Center
Mon 02:49:23 PM 35.9053 -114.7283 87° East 334 384 15,700 2,081 Climbing Los Angeles Center
Mon 02:50:25 PM 35.9078 -114.6011 89° East 360 414 17,600 1,887 Climbing Los Angeles Center
Mon 02:51:27 PM 35.9097 -114.4628 89° East 391 450 19,600 2,129 Climbing Los Angeles Center
Mon 02:52:29 PM 35.9153 -114.2939 88° East 410 472 22,000 1,935 Climbing Los Angeles Center
Mon 02:53:31 PM 35.9178 -114.1461 89° East 429 494 23,600 1,597 Climbing Los Angeles Center
Mon 02:54:33 PM 35.9200 -113.9947 89° East 440 506 25,300 1,440 Climbing Los Angeles Center
Mon 02:55:36 PM 35.9208 -113.8375 90° East 454 522 26,600 1,248 Climbing Los Angeles Center
Mon 02:56:38 PM 35.9217 -113.6767 90° East 467 537 27,900 1,355 Climbing Los Angeles Center
Mon 02:57:40 PM 35.9228 -113.4972 90° East 478 550 29,400 1,452 Climbing Los Angeles Center
Mon 02:58:42 PM 35.9236 -113.3294 90° East 488 562 30,900 1,452 Climbing Los Angeles Center
Mon 02:59:44 PM 35.9244 -113.1625 90° East 488 562 32,400 1,403 Climbing Los Angeles Center
Mon 03:00:46 PM 35.9239 -112.9961 90° East 486 559 33,800 1,306 Climbing Los Angeles Center
Mon 03:01:48 PM 35.9228 -112.8306 90° East 484 557 35,100 1,248 Climbing Los Angeles Center
Mon 03:02:51 PM 35.9228 -112.6325 90° East 482 555 36,400 912 Climbing Los Angeles Center
Mon 03:03:53 PM 35.9214 -112.4689 91° East 480 552 37,000 290 Climbing Los Angeles Center
Mon 03:04:55 PM 35.9206 -112.3058 90° East 478 550 37,000  Level Los Angeles Center
Mon 03:05:57 PM 35.9192 -112.1442 91° East 475 547 37,000  Level Los Angeles Center
Mon 03:06:59 PM 35.9169 -111.9833 91° East 473 544 37,000  Level Los Angeles Center
Mon 03:08:01 PM 35.9142 -111.7914 91° East 470 541 37,000  Level Los Angeles Center
Mon 03:09:03 PM 35.9131 -111.6328 90° East 468 539 37,000  Level Los Angeles Center
Mon 03:09:46 PM 35.9133 -111.5317 90° East 477 549 37,000  Level Denver Center
Mon 03:10:48 PM 35.9100 -111.3386 91° East 472 543 37,000  Level Denver Center
Mon 03:12:52 PM 35.9053 -111.0111 91° East 479 551 37,000  Level Denver Center
Mon 03:13:54 PM 35.9017 -110.8489 92° East 477 549 37,000  Level Denver Center
Mon 03:14:56 PM 35.9000 -110.7172 91° East 479 551 37,000  Level Denver Center
Mon 03:15:58 PM 35.8947 -110.5247 92° East 471 542 37,000  Level Denver Center
Mon 03:17:00 PM 35.8917 -110.3297 91° East 474 545 37,000  Level Denver Center
Mon 03:18:02 PM 35.8881 -110.1689 92° East 472 543 37,000  Level Denver Center
Mon 03:19:04 PM 35.8831 -110.0164 92° East 474 545 37,000  Level Denver Center
Mon 03:20:06 PM 35.8783 -109.8344 92° East 476 548 37,000  Level Denver Center
Mon 03:21:08 PM 35.8739 -109.6786 92° East 477 549 37,000  Level Denver Center
Mon 03:22:12 PM 35.8683 -109.4958 92° East 477 549 37,000  Level Albuquerque Center
Mon 03:23:13 PM 35.8608 -109.3400 93° East 478 550 37,000  Level Albuquerque Center
Mon 03:24:15 PM 35.8439 -109.1611 97° East 474 545 37,000  Level Albuquerque Center
Mon 03:25:17 PM 35.8314 -109.0089 96° East 472 543 37,000  Level Albuquerque Center
Mon 03:26:19 PM 35.8167 -108.8322 96° East 471 542 37,000  Level Albuquerque Center
Mon 03:27:20 PM 35.8047 -108.6811 96° East 469 540 37,000  Level Albuquerque Center
Mon 03:28:22 PM 35.7897 -108.5036 96° East 469 540 37,000  Level Albuquerque Center
Mon 03:29:24 PM 35.7767 -108.3528 96° East 467 537 37,000  Level Albuquerque Center
Mon 03:30:26 PM 35.7492 -108.1781 101° East 466 536 37,000  Level Albuquerque Center
Mon 03:31:27 PM 35.6997 -108.0378 113° Southeast 467 537 37,000  Level Albuquerque Center
Mon 03:32:29 PM 35.6850 -107.8586 96° East 472 543 37,000  Level Albuquerque Center
Mon 03:33:31 PM 35.6719 -107.7047 96° East 473 544 37,000  Level Albuquerque Center
Mon 03:34:33 PM 35.6544 -107.5281 97° East 469 540 37,000  Level Albuquerque Center
Mon 03:35:34 PM 35.6400 -107.3789 97° East 463 533 37,000  Level Albuquerque Center
Mon 03:36:36 PM 35.6264 -107.2303 96° East 459 528 37,000  Level Albuquerque Center
Mon 03:37:38 PM 35.6131 -107.0822 96° East 457 526 37,000  Level Albuquerque Center
Mon 03:38:40 PM 35.5956 -106.8964 97° East 455 524 37,000  Level Albuquerque Center
Mon 03:39:41 PM 35.5808 -106.7392 97° East 457 526 37,000  Level Albuquerque Center
Mon 03:40:43 PM 35.5642 -106.5844 97° East 454 522 37,000  Level Albuquerque Center
Mon 03:41:45 PM 35.5489 -106.4297 97° East 454 522 37,000  Level Albuquerque Center
Mon 03:42:47 PM 35.5328 -106.2764 97° East 452 520 37,000  Level Albuquerque Center
Mon 03:43:48 PM 35.5175 -106.1239 97° East 450 518 37,000  Level Albuquerque Center
Mon 03:44:50 PM 35.5006 -105.9711 98° East 452 520 37,000  Level Albuquerque Center
Mon 03:45:52 PM 35.4811 -105.7939 98° East 443 510 37,000  Level Albuquerque Center
Mon 03:46:53 PM 35.4653 -105.6419 97° East 443 510 37,000  Level Albuquerque Center
Mon 03:47:55 PM 35.4275 -105.4983 108° East 439 505 37,000  Level Albuquerque Center
Mon 03:48:57 PM 35.3892 -105.3531 108° East 444 511 37,000  Level Albuquerque Center
Mon 03:49:59 PM 35.3525 -105.2056 107° East 448 516 37,000  Level Albuquerque Center
Mon 03:51:01 PM 35.3161 -105.0581 107° East 449 517 37,000  Level Albuquerque Center
Mon 03:52:02 PM 35.2781 -104.9106 107° East 450 518 37,000  Level Albuquerque Center
Mon 03:53:04 PM 35.2547 -104.7631 101° East 442 509 37,000  Level Albuquerque Center
Mon 03:54:06 PM 35.2369 -104.6100 98° East 448 516 37,000  Level Albuquerque Center
Mon 03:55:08 PM 35.2231 -104.4536 96° East 452 520 37,000  Level Albuquerque Center
Mon 03:56:09 PM 35.2050 -104.3031 98° East 450 518 37,000  Level Albuquerque Center
Mon 03:57:11 PM 35.1844 -104.1217 98° East 450 518 37,000  Level Albuquerque Center
Mon 03:58:13 PM 35.1667 -103.9717 98° East 450 518 37,000  Level Albuquerque Center
Mon 03:59:15 PM 35.1489 -103.8308 99° East 453 521 37,000  Level Albuquerque Center
Mon 04:00:16 PM 35.1286 -103.6542 98° East 448 516 37,000  Level Albuquerque Center
Mon 04:01:18 PM 35.1103 -103.5033 98° East 446 513 37,000  Level Albuquerque Center
Mon 04:02:20 PM 35.0917 -103.3514 98° East 448 516 37,000  Level Albuquerque Center
Mon 04:03:22 PM 35.0731 -103.2019 99° East 445 512 37,000  Level Albuquerque Center
Mon 04:04:23 PM 35.0544 -103.0508 99° East 446 513 37,000  Level Albuquerque Center
Mon 04:05:25 PM 35.0336 -102.8942 99° East 446 513 37,000  Level Albuquerque Center
Mon 04:06:27 PM 35.0150 -102.7492 99° East 446 513 37,000  Level Albuquerque Center
Mon 04:07:28 PM 34.9958 -102.5956 99° East 447 514 37,000  Level Albuquerque Center
Mon 04:08:30 PM 34.9761 -102.4472 99° East 446 513 37,000  Level Albuquerque Center
Mon 04:09:32 PM 34.9569 -102.2975 99° East 448 516 37,000  Level Albuquerque Center
Mon 04:10:34 PM 34.9325 -102.1186 99° East 448 516 37,000  Level Albuquerque Center
Mon 04:11:35 PM 34.9122 -101.9719 100° East 445 512 37,000  Level Albuquerque Center
Mon 04:12:37 PM 34.8925 -101.8264 99° East 442 509 37,000  Level Albuquerque Center
Mon 04:13:39 PM 34.8731 -101.6794 99° East 444 511 37,000  Level Albuquerque Center
Mon 04:14:40 PM 34.8528 -101.5319 99° East 446 513 37,000  Level Albuquerque Center
Mon 04:15:42 PM 34.8292 -101.3564 99° East 443 510 37,000  Level Albuquerque Center
Mon 04:16:44 PM 34.8086 -101.2094 100° East 443 510 37,000  Level Albuquerque Center
Mon 04:17:45 PM 34.7881 -101.0622 100° East 444 511 37,000  Level Albuquerque Center
Mon 04:18:47 PM 34.7672 -100.9164 100° East 442 509 37,000  Level Albuquerque Center
Mon 04:19:49 PM 34.7464 -100.7681 100° East 444 511 37,000  Level Albuquerque Center
Mon 04:20:50 PM 34.7244 -100.6219 100° East 443 510 37,000  Level Albuquerque Center
Mon 04:21:52 PM 34.7039 -100.4739 100° East 445 512 37,000  Level Albuquerque Center
Mon 04:22:54 PM 34.6814 -100.3247 100° East 442 509 37,000  Level Albuquerque Center
Mon 04:23:55 PM 34.6550 -100.1475 100° East 445 512 37,000  Level Albuquerque Center
Mon 04:24:57 PM 34.6325 -100.0000 100° East 444 511 37,000  Level Albuquerque Center
Mon 04:25:41 PM 34.6158 -99.8989 101° East 444 511 37,000  Level Fort Worth Center
Mon 04:26:41 PM 34.5997 -99.7697 99° East 444 511 37,000 550 Level Fort Worth Center
Mon 04:27:41 PM 34.5714 -99.6050 102° East 452 520 38,100 1,000 Climbing Fort Worth Center
Mon 04:28:41 PM 34.5489 -99.4533 100° East 452 520 39,000 450 Climbing Fort Worth Center
Mon 04:29:41 PM 34.5261 -99.3114 101° East 447 514 39,000  Level Fort Worth Center
Mon 04:30:41 PM 34.5033 -99.1622 100° East 441 507 39,000  Level Fort Worth Center
Mon 04:31:41 PM 34.4800 -99.0208 101° East 441 507 39,000  Level Fort Worth Center
Mon 04:32:41 PM 34.4547 -98.8742 102° East 441 507 39,000  Level Fort Worth Center
Mon 04:33:41 PM 34.4314 -98.7278 101° East 434 499 39,000  Level Fort Worth Center
Mon 04:34:41 PM 34.4078 -98.5864 101° East 434 499 39,000  Level Fort Worth Center
Mon 04:35:41 PM 34.3819 -98.4428 102° East 434 499 39,000  Level Fort Worth Center
Mon 04:36:41 PM 34.3581 -98.2992 101° East 434 499 39,000  Level Fort Worth Center
Mon 04:37:41 PM 34.3317 -98.1528 102° East 434 499 39,000  Level Fort Worth Center
Mon 04:38:41 PM 34.3097 -98.0069 100° East 434 499 39,000  Level Fort Worth Center
Mon 04:39:41 PM 34.2853 -97.8658 102° East 434 499 39,000  Level Fort Worth Center
Mon 04:40:41 PM 34.2586 -97.7200 102° East 434 499 39,000  Level Fort Worth Center
Mon 04:41:41 PM 34.2336 -97.5742 102° East 434 499 39,000  Level Fort Worth Center
Mon 04:42:41 PM 34.2067 -97.4136 101° East 440 506 39,000  Level Fort Worth Center
Mon 04:43:41 PM 34.1817 -97.2678 102° East 440 506 39,000  Level Fort Worth Center
Mon 04:44:41 PM 34.1542 -97.1222 103° East 445 512 39,000  Level Fort Worth Center
Mon 04:45:41 PM 34.1289 -96.9819 102° East 445 512 39,000  Level Fort Worth Center
Mon 04:46:41 PM 34.1031 -96.8367 102° East 445 512 39,000  Level Fort Worth Center
Mon 04:47:41 PM 34.0858 -96.6889 98° East 440 506 39,000  Level Fort Worth Center
Mon 04:48:41 PM 34.0597 -96.5461 102° East 440 506 39,000  Level Fort Worth Center
Mon 04:49:41 PM 34.0336 -96.4061 103° East 435 501 39,000  Level Fort Worth Center
Mon 04:50:41 PM 34.0053 -96.2661 104° East 429 494 39,000  Level Fort Worth Center
Mon 04:51:41 PM 33.9811 -96.1211 101° East 429 494 39,000  Level Fort Worth Center
Mon 04:52:41 PM 33.9544 -95.9811 103° East 429 494 39,000  Level Fort Worth Center
Mon 04:53:41 PM 33.9256 -95.8389 104° East 429 494 39,000  Level Fort Worth Center
Mon 04:54:41 PM 33.9008 -95.6967 102° East 429 494 39,000  Level Fort Worth Center
Mon 04:55:41 PM 33.8717 -95.5622 105° East 429 494 39,000  Level Fort Worth Center
Mon 04:56:41 PM 33.8425 -95.4178 104° East 429 494 39,000  Level Fort Worth Center
Mon 04:57:41 PM 33.8172 -95.2758 102° East 429 494 39,000  Level Fort Worth Center
Mon 04:58:41 PM 33.7875 -95.1317 104° East 429 494 39,000  Level Fort Worth Center
Mon 04:59:41 PM 33.7619 -94.9900 102° East 429 494 39,000  Level Fort Worth Center
Mon 05:00:41 PM 33.7361 -94.8458 102° East 429 494 39,000  Level Fort Worth Center
Mon 05:01:41 PM 33.7058 -94.7044 104° East 429 494 39,000  Level Fort Worth Center
Mon 05:02:41 PM 33.6778 -94.5656 104° East 429 494 39,000  Level Fort Worth Center
Mon 05:03:41 PM 33.6517 -94.4242 102° East 429 494 39,000  Level Fort Worth Center
Mon 05:04:41 PM 33.6253 -94.2828 103° East 429 494 39,000  Level Fort Worth Center
Mon 05:05:41 PM 33.6036 -94.1714 103° East 429 494 39,000  Level Fort Worth Center
Mon 05:06:41 PM 33.5744 -94.0178 103° East 429 494 39,000  Level Fort Worth Center
Mon 05:07:41 PM 33.5475 -93.8744 103° East 429 494 39,000  Level Fort Worth Center
Mon 05:08:41 PM 33.5100 -93.7314 107° East 434 499 39,000  Level Fort Worth Center
Mon 05:09:41 PM 33.4725 -93.5961 108° East 434 499 39,000  Level Fort Worth Center
Mon 05:10:41 PM 33.4392 -93.4606 106° East 434 499 39,000  Level Fort Worth Center
Mon 05:11:41 PM 33.4078 -93.3228 105° East 434 499 39,000  Level Fort Worth Center
Mon 05:12:41 PM 33.3739 -93.1850 106° East 429 494 39,000  Level Fort Worth Center
Mon 05:13:41 PM 33.3403 -93.0547 107° East 424 488 39,000  Level Fort Worth Center
Mon 05:14:41 PM 33.3083 -92.9172 106° East 419 482 39,000  Level Fort Worth Center
Mon 05:15:41 PM 33.2722 -92.7850 108° East 419 482 39,000  Level Fort Worth Center
Mon 05:16:41 PM 33.2400 -92.6525 106° East 413 475 39,000  Level Fort Worth Center
Mon 05:18:15 PM 33.1828 -92.4347 107° East 421 484 39,000  Level Memphis Center
Mon 05:19:14 PM 33.1494 -92.3025 107° East 421 484 39,000  Level Memphis Center
Mon 05:20:14 PM 33.1181 -92.1728 106° East 416 479 39,000  Level Memphis Center
Mon 05:21:15 PM 33.0844 -92.0458 108° East 411 473 39,000  Level Memphis Center
Mon 05:22:14 PM 33.0483 -91.9286 110° East 405 466 39,000  Level Memphis Center
Mon 05:23:14 PM 33.0103 -91.7842 107° East 414 476 39,000  Level Memphis Center
Mon 05:24:15 PM 32.9783 -91.6550 106° East 414 476 39,000  Level Memphis Center
Mon 05:25:14 PM 32.9442 -91.5233 107° East 414 476 39,000  Level Memphis Center
Mon 05:26:14 PM 32.9097 -91.3942 108° East 414 476 39,000  Level Memphis Center
Mon 05:27:14 PM 32.8775 -91.2650 107° East 408 470 39,000  Level Memphis Center
Mon 05:28:14 PM 32.8408 -91.1361 109° East 408 470 39,000  Level Memphis Center
Mon 05:29:14 PM 32.8081 -91.0047 106° East 408 470 39,000  Level Memphis Center
Mon 05:30:14 PM 32.7731 -90.8761 108° East 408 470 39,000  Level Memphis Center
Mon 05:31:14 PM 32.7381 -90.7475 108° East 408 470 39,000  Level Memphis Center
Mon 05:32:14 PM 32.7031 -90.6189 108° East 403 464 39,000  Level Memphis Center
Mon 05:33:14 PM 32.6697 -90.4906 107° East 408 470 39,000  Level Memphis Center
Mon 05:34:14 PM 32.6344 -90.3622 108° East 408 470 39,000  Level Memphis Center
Mon 05:35:14 PM 32.5989 -90.2339 108° East 408 470 39,000  Level Memphis Center
Mon 05:36:14 PM 32.5653 -90.1181 109° East 408 470 39,000  Level Memphis Center
Mon 05:37:14 PM 32.5294 -89.9878 108° East 408 470 39,000  Level Memphis Center
Mon 05:38:14 PM 32.4956 -89.8572 107° East 408 470 39,000  Level Memphis Center
Mon 05:39:14 PM 32.4594 -89.7294 108° East 408 470 39,000  Level Memphis Center
Mon 05:40:14 PM 32.4211 -89.5992 109° East 408 470 39,000  Level Memphis Center
Mon 05:41:14 PM 32.3869 -89.4692 107° East 408 470 39,000 350 Level Memphis Center
Mon 05:42:14 PM 32.3503 -89.3367 108° East 408 470 39,700 500 Climbing Memphis Center
Mon 05:43:14 PM 32.3136 -89.2069 108° East 408 470 40,000 150 Climbing Memphis Center
Mon 05:44:14 PM 32.2769 -89.0722 108° East 413 475 40,000  Level Memphis Center
Mon 05:45:14 PM 32.2336 -88.9256 109° East 424 488 40,000  Level Memphis Center
Mon 05:46:14 PM 32.1964 -88.7936 108° East 419 482 40,000  Level Memphis Center
Mon 05:48:21 PM 32.0761 -88.5317 118° Southeast 425 489 40,000  Level Atlanta Center
Mon 05:49:21 PM 32.0278 -88.4239 118° Southeast 430 495 40,000  Level Atlanta Center
Mon 05:50:21 PM 31.9697 -88.2961 118° Southeast 436 502 40,000  Level Atlanta Center
Mon 05:51:21 PM 31.9133 -88.1711 118° Southeast 436 502 40,000  Level Atlanta Center
Mon 05:52:21 PM 31.8550 -88.0439 118° Southeast 441 507 40,000 -50 Level Atlanta Center
Mon 05:53:21 PM 31.8006 -87.9167 117° Southeast 441 507 39,900 -300 Descending Atlanta Center
Mon 05:54:21 PM 31.7461 -87.7897 117° Southeast 441 507 39,400 -450 Descending Atlanta Center
Mon 05:55:21 PM 31.7000 -87.6586 112° Southeast 436 502 39,000 -128 Descending Atlanta Center
Mon 05:57:28 PM 31.5325 -87.4211 130° Southeast 429 494 39,000  Level Jacksonville Center
Mon 05:58:28 PM 31.4083 -87.3883 167° South 429 494 39,000  Level Jacksonville Center
Mon 05:59:28 PM 31.2819 -87.3650 171° South 441 507 39,000  Level Jacksonville Center
Mon 06:00:28 PM 31.1533 -87.3372 170° South 454 522 39,000  Level Jacksonville Center
Mon 06:01:28 PM 31.0247 -87.3142 171° South 466 536 39,000  Level Jacksonville Center
Mon 06:02:28 PM 30.9025 -87.2914 171° South 466 536 39,000  Level Jacksonville Center
Mon 06:03:28 PM 30.7853 -87.2375 158° South 444 511 39,000  Level Jacksonville Center
Mon 06:04:28 PM 30.7289 -87.1142 118° Southeast 409 471 39,000  Level Jacksonville Center
Mon 06:05:28 PM 30.6767 -86.9864 115° Southeast 415 478 39,000  Level Jacksonville Center
Mon 06:06:28 PM 30.6303 -86.8733 115° Southeast 422 486 39,000 -100 Level Jacksonville Center
Mon 06:07:28 PM 30.5756 -86.7481 117° Southeast 427 491 38,800 -600 Descending Jacksonville Center
Mon 06:08:28 PM 30.5231 -86.6181 115° Southeast 438 504 37,800 -900 Descending Jacksonville Center
Mon 06:09:28 PM 30.4853 -86.4842 108° East 438 504 37,000 -400 Descending Jacksonville Center
Mon 06:10:28 PM 30.4869 -86.3444 89° East 427 491 37,000  Level Jacksonville Center
Mon 06:11:28 PM 30.4908 -86.2047 88° East 427 491 37,000  Level Jacksonville Center
Mon 06:12:28 PM 30.4839 -86.0622 93° East 427 491 37,000  Level Jacksonville Center
Mon 06:13:28 PM 30.4683 -85.9244 97° East 427 491 37,000  Level Jacksonville Center
Mon 06:14:28 PM 30.4489 -85.7839 99° East 432 497 37,000  Level Jacksonville Center
Mon 06:15:28 PM 30.4289 -85.6461 100° East 432 497 37,000 -50 Level Jacksonville Center
Mon 06:16:28 PM 30.4108 -85.5058 98° East 432 497 36,900 -1,050 Descending Jacksonville Center
Mon 06:17:28 PM 30.3908 -85.3561 99° East 432 497 34,900 -2,250 Descending Jacksonville Center
Mon 06:18:28 PM 30.3789 -85.2161 96° East 432 497 32,400 -2,300 Descending Jacksonville Center
Mon 06:19:28 PM 30.3917 -85.0839 84° East 422 486 30,300 -1,750 Descending Jacksonville Center
Mon 06:20:28 PM 30.4044 -84.9519 84° East 422 486 28,900 -650 Descending Jacksonville Center
Mon 06:21:28 PM 30.4169 -84.8172 84° East 417 480 29,000 50 Climbing Jacksonville Center
Mon 06:22:28 PM 30.4147 -84.6822 91° East 417 480 29,000  Level Jacksonville Center
Mon 06:23:28 PM 30.4061 -84.5472 94° East 417 480 29,000  Level Jacksonville Center
Mon 06:24:28 PM 30.3953 -84.4122 95° East 422 486 29,000  Level Jacksonville Center
Mon 06:25:28 PM 30.3781 -84.2794 99° East 422 486 29,000  Level Jacksonville Center
Mon 06:26:28 PM 30.3647 -84.1469 97° East 422 486 29,000  Level Jacksonville Center
Mon 06:27:28 PM 30.3472 -84.0142 99° East 422 486 29,000  Level Jacksonville Center
Mon 06:28:28 PM 30.3294 -83.8842 99° East 417 480 29,000 -600 Level Jacksonville Center
Mon 06:29:28 PM 30.3242 -83.7542 93° East 417 480 27,800 -1,600 Descending Jacksonville Center
Mon 06:30:28 PM 30.3269 -83.6242 89° East 403 464 25,800 -1,900 Descending Jacksonville Center
Mon 06:31:28 PM 30.3381 -83.5014 84° East 390 449 24,000 -1,150 Descending Jacksonville Center
Mon 06:32:28 PM 30.3658 -83.3861 74° East 378 435 23,500 -500 Descending Jacksonville Center
Mon 06:33:28 PM 30.3892 -83.2658 77° East 373 429 23,000 -250 Descending Jacksonville Center
Mon 06:34:28 PM 30.4144 -83.1478 76° East 373 429 23,000 -700 Level Jacksonville Center
Mon 06:35:28 PM 30.4397 -83.0322 76° East 373 429 21,600 -1,600 Descending Jacksonville Center
Mon 06:36:28 PM 30.4628 -82.9192 77° East 368 423 19,800 -1,750 Descending Jacksonville Center
Mon 06:37:28 PM 30.4836 -82.8106 77° East 357 411 18,100 -1,700 Descending Jacksonville Center
Mon 06:38:28 PM 30.5064 -82.7022 76° East 351 404 16,400 -1,650 Descending Jacksonville Center
Mon 06:39:28 PM 30.5250 -82.6081 77° East 339 390 14,800 -1,744 Descending Jacksonville Center
Mon 06:40:25 PM 30.5478 -82.5042 76° East 328 377 13,000 -1,780 Descending Jacksonville Center
Mon 06:41:26 PM 30.5578 -82.3981 84° East 318 366 11,300 -1,377 Descending Jacksonville Center
Mon 06:42:27 PM 30.5575 -82.2992 90° East 296 341 10,200 -1,328 Descending Jacksonville Center
Mon 06:43:28 PM 30.5550 -82.2147 92° East 301 346 8,600 -1,785 Descending Jacksonville Center
Mon 06:44:28 PM 30.5522 -82.1206 92° East 295 339 6,600 -2,033 Descending Jacksonville Center
Mon 06:45:29 PM 30.5497 -82.0242 92° East 279 321 4,500 -1,700 Descending Jacksonville Center
Mon 06:46:28 PM 30.5450 -81.9469 94° East 277 319 3,200 -1,230 Descending Jacksonville Center
Mon 06:47:31 PM 30.5461 -81.8531 89° East 257 296 2,000 -629 Descending Jacksonville Center
Mon 06:48:32 PM 30.5414 -81.7831 94° East 173 199 1,900 -513 Descending Jacksonville Center
Mon 06:49:28 PM 30.5267 -81.7494 117° Southeast 192 221 1,000 -787 Descending Jacksonville Center
Mon 06:50:34 PM 30.4969 -81.7136 134° Southeast 130 150 300 -636 Descending Jacksonville Center
Mon 06:52:00 PM 30.4941 -81.6879 115° Southeast  Level Estimated

Login

Don't have an account? Register now (free) for customized features, flight alerts, and more!